Create Custom Reports and Graphics: Custom Report

Robertsbridge Vineyards

Current Conditions

5/19/24 8:30 AM (-07:00)
Updated Every 15 Minutes
Temp 61.1 °F   5.6
RH 46 %   19
Dew Pt 40.4 °F   14.3
Wet Bulb 50.4 °F   9.7
Daily Min Temp 40.6 °F   10.3
Daily Max Temp 62.0 °F   5.0
Yest MinT 46.5 °F
Yest MaxT 84.9 °F
BatVolt 14.1 V   0.2

Last 30 Days

Robertsbridge Vineyards

Daily Data | America/Los_Angeles
as of 5/19/24 8:32 AM PDT
Date Daily Max Temp (°F) Time of Max Temp Daily Min Temp (°F) Time of Min Temp Dew Pt (°F) Max RH (%) Min RH (%) Hrs <= 32F (hrs) Hrs <= 28F (hrs) Hrs 70-85F (hrs) Hrs > 95F (hrs) Powdery Mildew Stress (pts) GDDs (DL) GDDs (Mx/Mn) Chilling <=45F (hrs) MinBV Day (V)
5/18/24 84.9 1507 46.5 0050 50.8 96 30 0.0 0.0 10.52 0.00 20 16.1 15.7 0.0 12.6
5/17/24 88.4 1532 48.9 0531 54.0 96 29 0.0 0.0 4.14 0.00 0 18.1 18.7 0.0 12.6
5/16/24 86.5 1416 48.7 0537 51.7 93 29 0.0 0.0 5.14 0.00 0 17.4 17.6 0.0 12.6
5/15/24 93.5 1544 50.1 0617 47.9 86 15 0.0 0.0 3.00 0.00 10 20.7 21.8 0.0 12.6
5/14/24 90.2 1438 47.1 0550 49.9 92 19 0.0 0.0 2.77 0.00 20 18.7 18.7 0.0 12.6
5/13/24 88.5 1431 43.3 0611 43.8 88 13 0.0 0.0 4.27 0.00 30 16.7 15.9 1.2 12.6
5/12/24 87.6 1520 44.9 0615 43.2 89 18 0.0 0.0 5.19 0.00 40 15.9 16.2 0.3 12.6
5/11/24 90.3 1508 44.6 0607 41.6 89 11 0.0 0.0 3.45 0.00 50 17.4 17.4 0.9 12.6
5/10/24 87.1 1502 43.8 0600 38.7 86 10 0.0 0.0 6.50 0.00 60 16.2 15.5 1.2 12.6
5/9/24 80.8 1747 48.3 0021 33.3 77 17 0.0 0.0 8.15 0.00 40 14.8 14.5 0.0 12.7
5/8/24 78.7 1600 37.2 0335 27.3 92 11 0.0 0.0 6.78 0.00 20 13.4 8.0 5.6 12.6
5/7/24 73.0 1655 32.8 0433 36.5 98 18 0.0 0.0 2.39 0.00 0 7.1 2.9 7.7 12.6
5/6/24 66.2 1634 32.0 0558 37.6 97 31 0.0 0.0 0.00 0.00 0 4.7 0.0 9.6 12.5
5/5/24 59.4 1443 31.1 0559 34.2 99 34 1.6 0.0 0.00 0.00 0 1.8 0.0 12.2 12.5
5/4/24 51.9 0138 38.9 0043 41.6 96 59 0.0 0.0 0.00 0.00 0 0.3 0.0 12.8 12.6
5/3/24 75.9 1533 37.7 0557 41.1 95 21 0.0 0.0 5.90 0.00 0 9.4 6.8 6.2 12.6
5/2/24 72.6 1440 38.1 0621 43.7 92 38 0.0 0.0 2.09 0.00 0 9.0 5.3 6.6 12.6
5/1/24 76.1 1546 32.6 0432 34.1 95 15 0.0 0.0 4.33 0.00 10 8.3 4.3 9.4 12.6
4/30/24 72.4 1524 31.8 0557 35.4 97 22 0.4 0.0 0.47 0.00 20 5.9 2.1 10.4 12.6
4/29/24 69.3 1512 32.4 0620 35.9 97 24 0.0 0.0 0.00 0.00 30 5.8 0.8 9.8 12.5
4/28/24 71.7 1601 36.1 0556 39.4 97 23 0.0 0.0 1.28 0.00 40 7.3 3.9 8.7 12.6
4/27/24 68.6 1625 32.3 0613 38.9 100 32 0.0 0.0 0.00 0.00 50 6.0 0.5 8.7 12.6
4/26/24 62.9 1424 37.1 0055 42.3 94 44 0.0 0.0 0.00 0.00 60 3.4 0.0 3.6 12.6
4/25/24 63.7 1541 43.0 0348 42.9 94 45 0.0 0.0 0.00 0.00 70 4.0 3.3 2.2 12.6
4/24/24 67.4 1610 46.4 0449 45.3 90 44 0.0 0.0 0.00 0.00 80 5.4 6.9 0.0 12.6
4/23/24 66.3 1458 40.4 0640 45.3 96 49 0.0 0.0 0.00 0.00 90 5.1 3.4 4.4 12.6
4/22/24 84.4 1601 42.9 0634 45.6 94 17 0.0 0.0 9.20 0.00 100 13.6 13.6 2.0 12.6
4/21/24 83.2 1622 41.0 0544 44.0 93 21 0.0 0.0 8.86 0.00 100 13.1 12.0 6.4 12.6
4/20/24 78.7 1538 41.3 0648 36.6 90 14 0.0 0.0 8.74 0.00 90 11.4 10.0 4.7 12.6
4/19/24 81.0 1545 42.2 0638 44.7 97 23 0.0 0.0 8.46 0.00 70 12.0 11.6 2.3 12.6
Max 93.5 - 50.1 - 54.0 100 59 1.6 0.0 10.52 0.00 - 20.7 21.8 12.8 12.7
Avg - - - - 41.6 - - 0.1 0.0 3.72 0.00 - 10.6 8.9 4.6 -
Min 51.9 - 31.1 - 27.3 77 10 0.0 0.0 0.00 0.00 - 0.3 0.0 0.0 12.5
Total - - - - - - - 2.1 0.0 111.61 0.00 - 319.2 267.6 136.9 -